Time,TemperatureF,DewpointF,PressureIn,WindDirection,WindDirectionDegrees,WindSpeedMPH,WindSpeedGustMPH,Humidity,HourlyPrecipIn,Conditions,Clouds,dailyrainin,SoftwareType,DateUTC
2013-06-30 00:00:00,64.3,59.0,29.68,South,179,0.0,0.0,83,0.00,,,0.52,Wunderground v.1.15,2013-06-30 04:00:00,
2013-06-30 00:01:00,64.2,58.9,29.68,South,179,0.0,0.0,83,0.00,,,0.00,Wunderground v.1.15,2013-06-30 04:01:00,
2013-06-30 00:02:00,64.2,58.9,29.68,South,179,0.0,0.0,83,0.00,,,0.00,Wunderground v.1.15,2013-06-30 04:02:00,
2013-06-30 00:05:00,64.2,58.9,29.69,South,179,0.0,0.0,83,0.00,,,0.00,Wunderground v.1.15,2013-06-30 04:05:00,
2013-06-30 00:06:00,64.2,58.9,29.69,South,179,0.0,0.0,83,0.00,,,0.00,Wunderground v.1.15,2013-06-30 04:06:00,
2013-06-30 00:08:00,64.1,58.8,29.68,South,179,0.0,0.0,83,0.00,,,0.00,Wunderground v.1.15,2013-06-30 04:08:00,
2013-06-30 00:13:00,64.1,58.8,29.69,South,179,0.0,0.0,83,0.00,,,0.00,Wunderground v.1.15,2013-06-30 04:13:00,
2013-06-30 00:18:00,64.0,58.7,29.69,South,179,0.0,0.0,83,0.00,,,0.00,Wunderground v.1.15,2013-06-30 04:18:00,
2013-06-30 00:23:00,63.8,58.5,29.69,South,179,0.0,0.0,83,0.00,,,0.00,Wunderground v.1.15,2013-06-30 04:23:00,
2013-06-30 00:29:00,63.6,58.3,29.69,South,179,0.0,0.0,83,0.00,,,0.00,Wunderground v.1.15,2013-06-30 04:29:00,
2013-06-30 00:34:00,63.5,58.2,29.69,South,179,0.0,0.0,83,0.00,,,0.00,Wunderground v.1.15,2013-06-30 04:34:00,
2013-06-30 00:40:00,63.3,58.0,29.69,South,179,0.0,0.0,83,0.00,,,0.00,Wunderground v.1.15,2013-06-30 04:40:00,
2013-06-30 00:45:00,63.1,58.2,29.69,South,179,0.0,0.0,84,0.00,,,0.00,Wunderground v.1.15,2013-06-30 04:45:00,
2013-06-30 00:50:00,62.8,57.6,29.69,South,179,0.0,0.0,83,0.00,,,0.00,Wunderground v.1.15,2013-06-30 04:50:00,
2013-06-30 00:55:00,62.9,57.7,29.69,South,179,0.0,0.0,83,0.00,,,0.00,Wunderground v.1.15,2013-06-30 04:55:00,
2013-06-30 01:01:00,62.8,57.6,29.69,South,179,0.0,0.0,83,0.00,,,0.00,Wunderground v.1.15,2013-06-30 05:01:00,
2013-06-30 01:07:00,62.7,57.5,29.69,South,179,0.0,0.0,83,0.00,,,0.00,Wunderground v.1.15,2013-06-30 05:07:00,
2013-06-30 01:12:00,62.5,57.3,29.70,South,179,0.0,0.0,83,0.00,,,0.00,Wunderground v.1.15,2013-06-30 05:12:00,
2013-06-30 01:17:00,62.4,57.2,29.70,South,179,0.0,0.0,83,0.00,,,0.00,Wunderground v.1.15,2013-06-30 05:17:00,
2013-06-30 01:22:00,62.2,57.0,29.69,South,179,0.0,0.0,83,0.00,,,0.00,Wunderground v.1.15,2013-06-30 05:22:00,
2013-06-30 01:28:00,61.9,56.7,29.70,South,179,0.0,0.0,83,0.00,,,0.00,Wunderground v.1.15,2013-06-30 05:28:00,
2013-06-30 01:33:00,61.7,56.5,29.70,South,179,0.0,0.0,83,0.00,,,0.00,Wunderground v.1.15,2013-06-30 05:33:00,
2013-06-30 01:39:00,61.6,56.4,29.70,South,179,0.0,0.0,83,0.00,,,0.00,Wunderground v.1.15,2013-06-30 05:39:00,
2013-06-30 01:44:00,61.5,56.3,29.70,South,179,0.0,0.0,83,0.00,,,0.00,Wunderground v.1.15,2013-06-30 05:44:00,
2013-06-30 01:49:00,61.5,56.3,29.70,South,179,0.0,0.0,83,0.00,,,0.00,Wunderground v.1.15,2013-06-30 05:49:00,
2013-06-30 01:55:00,61.4,56.2,29.70,South,179,0.0,0.0,83,0.00,,,0.00,Wunderground v.1.15,2013-06-30 05:55:00,
2013-06-30 02:00:00,61.4,56.2,29.70,South,179,0.0,0.0,83,0.00,,,0.00,Wunderground v.1.15,2013-06-30 06:00:00,
2013-06-30 02:05:00,61.4,55.9,29.70,South,179,0.0,0.0,82,0.00,,,0.00,Wunderground v.1.15,2013-06-30 06:05:00,
2013-06-30 02:11:00,61.3,56.1,29.70,South,179,0.0,0.0,83,0.00,,,0.00,Wunderground v.1.15,2013-06-30 06:11:00,
2013-06-30 02:16:00,61.1,55.9,29.71,South,179,0.0,0.0,83,0.00,,,0.00,Wunderground v.1.15,2013-06-30 06:16:00,
2013-06-30 02:21:00,61.0,55.8,29.71,South,179,0.0,0.0,83,0.00,,,0.00,Wunderground v.1.15,2013-06-30 06:21:00,
2013-06-30 02:27:00,60.9,55.7,29.71,South,179,0.0,0.0,83,0.00,,,0.00,Wunderground v.1.15,2013-06-30 06:27:00,
2013-06-30 02:32:00,60.7,55.5,29.71,South,179,0.0,0.0,83,0.00,,,0.00,Wunderground v.1.15,2013-06-30 06:32:00,
2013-06-30 02:37:00,60.5,55.3,29.71,South,179,0.0,0.0,83,0.00,,,0.00,Wunderground v.1.15,2013-06-30 06:37:00,
2013-06-30 02:43:00,60.3,55.1,29.71,South,179,0.0,0.0,83,0.00,,,0.00,Wunderground v.1.15,2013-06-30 06:43:00,
2013-06-30 02:48:00,60.1,54.9,29.71,South,179,0.0,0.0,83,0.00,,,0.00,Wunderground v.1.15,2013-06-30 06:48:00,
2013-06-30 02:54:00,60.0,54.8,29.71,South,179,0.0,0.0,83,0.00,,,0.00,Wunderground v.1.15,2013-06-30 06:54:00,
2013-06-30 03:00:00,59.9,54.7,29.71,South,179,0.0,0.0,83,0.00,,,0.00,Wunderground v.1.15,2013-06-30 07:00:00,
2013-06-30 03:05:00,59.8,54.6,29.71,South,179,0.0,0.0,83,0.00,,,0.00,Wunderground v.1.15,2013-06-30 07:05:00,
2013-06-30 03:11:00,59.8,54.6,29.71,South,179,0.0,0.0,83,0.00,,,0.00,Wunderground v.1.15,2013-06-30 07:11:00,
2013-06-30 03:16:00,59.9,54.4,29.71,South,179,0.0,0.0,82,0.00,,,0.00,Wunderground v.1.15,2013-06-30 07:16:00,
2013-06-30 03:21:00,59.8,54.6,29.71,South,179,0.0,0.0,83,0.00,,,0.00,Wunderground v.1.15,2013-06-30 07:21:00,
2013-06-30 03:27:00,59.5,54.3,29.71,South,179,0.0,0.0,83,0.00,,,0.00,Wunderground v.1.15,2013-06-30 07:27:00,
2013-06-30 03:32:00,59.2,54.4,29.71,South,179,0.0,0.0,84,0.00,,,0.00,Wunderground v.1.15,2013-06-30 07:32:00,
2013-06-30 03:38:00,59.1,53.9,29.71,South,179,0.0,0.0,83,0.00,,,0.00,Wunderground v.1.15,2013-06-30 07:38:00,
2013-06-30 03:43:00,58.9,53.7,29.72,South,179,0.0,0.0,83,0.00,,,0.00,Wunderground v.1.15,2013-06-30 07:43:00,
2013-06-30 03:48:00,58.7,53.5,29.72,South,179,0.0,0.0,83,0.00,,,0.00,Wunderground v.1.15,2013-06-30 07:48:00,
2013-06-30 03:54:00,58.7,53.5,29.72,South,179,0.0,0.0,83,0.00,,,0.00,Wunderground v.1.15,2013-06-30 07:54:00,
2013-06-30 03:59:00,58.8,53.6,29.72,South,179,0.0,0.0,83,0.00,,,0.00,Wunderground v.1.15,2013-06-30 07:59:00,
2013-06-30 04:05:00,59.0,53.5,29.72,South,179,0.0,0.0,82,0.00,,,0.00,Wunderground v.1.15,2013-06-30 08:05:00,
2013-06-30 04:11:00,59.3,53.8,29.72,South,179,0.0,0.0,82,0.00,,,0.00,Wunderground v.1.15,2013-06-30 08:11:00,
2013-06-30 04:16:00,59.8,54.3,29.72,South,179,0.0,0.0,82,0.00,,,0.00,Wunderground v.1.15,2013-06-30 08:16:00,
2013-06-30 04:22:00,60.1,54.6,29.72,South,179,0.0,0.0,82,0.00,,,0.00,Wunderground v.1.15,2013-06-30 08:22:00,
2013-06-30 04:28:00,60.3,54.8,29.73,South,179,0.0,0.0,82,0.00,,,0.00,Wunderground v.1.15,2013-06-30 08:28:00,
2013-06-30 04:33:00,60.3,54.8,29.73,South,179,0.0,0.0,82,0.00,,,0.00,Wunderground v.1.15,2013-06-30 08:33:00,
2013-06-30 04:39:00,60.0,54.5,29.73,South,179,0.0,0.0,82,0.00,,,0.00,Wunderground v.1.15,2013-06-30 08:39:00,
2013-06-30 04:44:00,59.8,54.3,29.73,South,179,0.0,0.0,82,0.00,,,0.00,Wunderground v.1.15,2013-06-30 08:44:00,
2013-06-30 04:49:00,59.7,54.5,29.73,South,179,0.0,0.0,83,0.00,,,0.00,Wunderground v.1.15,2013-06-30 08:49:00,
2013-06-30 04:55:00,59.5,54.3,29.73,South,179,0.0,0.0,83,0.00,,,0.00,Wunderground v.1.15,2013-06-30 08:55:00,
2013-06-30 05:00:00,59.5,54.3,29.73,South,179,0.0,0.0,83,0.00,,,0.00,Wunderground v.1.15,2013-06-30 09:00:00,
2013-06-30 05:06:00,59.6,54.1,29.74,South,179,0.0,0.0,82,0.00,,,0.00,Wunderground v.1.15,2013-06-30 09:06:00,
2013-06-30 05:11:00,59.5,54.0,29.74,South,179,0.0,0.0,82,0.00,,,0.00,Wunderground v.1.15,2013-06-30 09:11:00,
2013-06-30 05:16:00,59.5,54.0,29.74,South,179,0.0,0.0,82,0.00,,,0.00,Wunderground v.1.15,2013-06-30 09:16:00,
2013-06-30 05:22:00,59.3,53.8,29.74,South,179,0.0,0.0,82,0.00,,,0.00,Wunderground v.1.15,2013-06-30 09:22:00,
2013-06-30 05:27:00,59.2,53.7,29.74,South,179,0.0,0.0,82,0.00,,,0.00,Wunderground v.1.15,2013-06-30 09:27:00,
2013-06-30 05:33:00,59.5,54.0,29.74,South,179,0.0,0.0,82,0.00,,,0.00,Wunderground v.1.15,2013-06-30 09:33:00,
2013-06-30 05:38:00,59.9,54.4,29.75,South,179,0.0,0.0,82,0.00,,,0.00,Wunderground v.1.15,2013-06-30 09:38:00,
2013-06-30 05:44:00,60.0,54.5,29.75,South,179,0.0,0.0,82,0.00,,,0.00,Wunderground v.1.15,2013-06-30 09:44:00,
2013-06-30 05:49:00,59.8,54.3,29.75,South,179,0.0,0.0,82,0.00,,,0.00,Wunderground v.1.15,2013-06-30 09:49:00,
2013-06-30 05:54:00,59.6,54.1,29.75,South,179,0.0,0.0,82,0.00,,,0.00,Wunderground v.1.15,2013-06-30 09:54:00,
2013-06-30 06:00:00,59.5,54.0,29.75,South,179,0.0,0.0,82,0.00,,,0.00,Wunderground v.1.15,2013-06-30 10:00:00,
2013-06-30 06:05:00,59.7,54.2,29.75,South,179,0.0,0.0,82,0.00,,,0.00,Wunderground v.1.15,2013-06-30 10:05:00,
2013-06-30 06:11:00,60.2,54.7,29.75,South,179,0.0,0.0,82,0.00,,,0.00,Wunderground v.1.15,2013-06-30 10:11:00,
2013-06-30 06:16:00,60.5,55.0,29.75,South,179,0.0,0.0,82,0.00,,,0.00,Wunderground v.1.15,2013-06-30 10:16:00,
2013-06-30 06:21:00,60.8,55.3,29.75,South,179,0.0,0.0,82,0.00,,,0.00,Wunderground v.1.15,2013-06-30 10:21:00,
2013-06-30 06:27:00,60.9,55.4,29.76,South,179,0.0,0.0,82,0.00,,,0.00,Wunderground v.1.15,2013-06-30 10:27:00,
2013-06-30 06:32:00,60.9,55.4,29.75,South,179,0.0,0.0,82,0.00,,,0.00,Wunderground v.1.15,2013-06-30 10:32:00,
2013-06-30 06:38:00,61.1,55.6,29.76,South,179,0.0,0.0,82,0.00,,,0.00,Wunderground v.1.15,2013-06-30 10:38:00,
2013-06-30 06:43:00,61.2,55.7,29.76,South,179,0.0,0.0,82,0.00,,,0.00,Wunderground v.1.15,2013-06-30 10:43:00,
2013-06-30 06:48:00,61.4,55.9,29.76,South,179,0.0,2.0,82,0.00,,,0.00,Wunderground v.1.15,2013-06-30 10:48:00,
2013-06-30 06:54:00,61.5,56.0,29.77,South,179,0.0,0.0,82,0.00,,,0.00,Wunderground v.1.15,2013-06-30 10:54:00,
2013-06-30 06:59:00,61.8,56.2,29.77,South,179,0.0,0.0,82,0.00,,,0.00,Wunderground v.1.15,2013-06-30 10:59:00,
2013-06-30 07:05:00,62.1,56.5,29.77,South,179,0.0,2.0,82,0.00,,,0.00,Wunderground v.1.15,2013-06-30 11:05:00,
2013-06-30 07:10:00,62.2,56.6,29.76,South,175,0.0,0.0,82,0.00,,,0.00,Wunderground v.1.15,2013-06-30 11:10:00,
2013-06-30 07:15:00,62.2,56.6,29.77,SSE,157,0.0,3.0,82,0.00,,,0.00,Wunderground v.1.15,2013-06-30 11:15:00,
2013-06-30 07:21:00,62.2,56.6,29.78,SSE,157,1.0,1.0,82,0.00,,,0.00,Wunderground v.1.15,2013-06-30 11:21:00,
2013-06-30 07:26:00,62.4,56.8,29.77,SSE,159,1.0,3.0,82,0.00,,,0.00,Wunderground v.1.15,2013-06-30 11:26:00,
2013-06-30 07:32:00,62.6,57.0,29.77,SSE,147,1.0,2.0,82,0.00,,,0.00,Wunderground v.1.15,2013-06-30 11:32:00,
2013-06-30 07:37:00,62.7,57.1,29.77,SSE,148,1.0,3.0,82,0.00,,,0.00,Wunderground v.1.15,2013-06-30 11:37:00,
2013-06-30 07:42:00,62.9,57.3,29.77,SSE,148,0.0,1.0,82,0.00,,,0.00,Wunderground v.1.15,2013-06-30 11:42:00,
2013-06-30 07:47:00,63.1,57.5,29.77,SE,130,0.0,1.0,82,0.00,,,0.00,Wunderground v.1.15,2013-06-30 11:47:00,
2013-06-30 07:53:00,63.4,57.8,29.78,East,89,0.0,0.0,82,0.00,,,0.00,Wunderground v.1.15,2013-06-30 11:53:00,
2013-06-30 07:58:00,63.6,58.0,29.79,SSE,156,0.0,2.0,82,0.00,,,0.00,Wunderground v.1.15,2013-06-30 11:58:00,
2013-06-30 08:04:00,63.8,58.2,29.79,SE,132,0.0,0.0,82,0.00,,,0.00,Wunderground v.1.15,2013-06-30 12:04:00,
2013-06-30 08:09:00,63.8,58.2,29.79,SSE,151,1.0,2.0,82,0.00,,,0.00,Wunderground v.1.15,2013-06-30 12:09:00,
2013-06-30 08:15:00,64.0,58.4,29.78,SSE,154,1.0,2.0,82,0.00,,,0.00,Wunderground v.1.15,2013-06-30 12:15:00,
2013-06-30 08:20:00,64.1,58.5,29.79,ESE,109,0.0,1.0,82,0.00,,,0.00,Wunderground v.1.15,2013-06-30 12:20:00,
2013-06-30 08:26:00,64.2,58.6,29.79,East,80,1.0,1.0,82,0.00,,,0.00,Wunderground v.1.15,2013-06-30 12:26:00,
2013-06-30 08:31:00,64.3,58.7,29.79,East,85,0.0,2.0,82,0.00,,,0.00,Wunderground v.1.15,2013-06-30 12:31:00,
2013-06-30 08:36:00,64.6,59.0,29.79,ENE,74,0.0,2.0,82,0.00,,,0.00,Wunderground v.1.15,2013-06-30 12:36:00,
2013-06-30 08:42:00,64.7,59.1,29.79,East,82,0.0,1.0,82,0.00,,,0.00,Wunderground v.1.15,2013-06-30 12:42:00,
2013-06-30 08:47:00,64.8,59.2,29.79,East,80,0.0,1.0,82,0.00,,,0.00,Wunderground v.1.15,2013-06-30 12:47:00,
2013-06-30 08:53:00,65.0,59.4,29.80,East,87,1.0,1.0,82,0.00,,,0.00,Wunderground v.1.15,2013-06-30 12:53:00,
2013-06-30 08:58:00,65.3,59.7,29.80,East,79,0.0,1.0,82,0.00,,,0.00,Wunderground v.1.15,2013-06-30 12:58:00,
2013-06-30 09:04:00,65.8,60.2,29.80,ENE,77,1.0,3.0,82,0.00,,,0.00,Wunderground v.1.15,2013-06-30 13:04:00,
2013-06-30 09:09:00,66.2,60.5,29.80,ENE,75,1.0,1.0,82,0.00,,,0.00,Wunderground v.1.15,2013-06-30 13:09:00,
2013-06-30 09:15:00,66.5,60.8,29.80,ESE,117,1.0,3.0,82,0.00,,,0.00,Wunderground v.1.15,2013-06-30 13:15:00,
2013-06-30 09:20:00,67.1,61.4,29.80,NE,54,1.0,1.0,82,0.00,,,0.00,Wunderground v.1.15,2013-06-30 13:20:00,
2013-06-30 09:25:00,67.5,61.8,29.81,NE,55,1.0,3.0,82,0.00,,,0.00,Wunderground v.1.15,2013-06-30 13:25:00,
2013-06-30 09:31:00,67.9,62.2,29.80,East,95,1.0,3.0,82,0.00,,,0.00,Wunderground v.1.15,2013-06-30 13:31:00,
2013-06-30 09:36:00,68.4,62.3,29.80,East,96,1.0,3.0,81,0.00,,,0.00,Wunderground v.1.15,2013-06-30 13:36:00,
2013-06-30 09:42:00,68.5,62.4,29.80,East,101,1.0,2.0,81,0.00,,,0.00,Wunderground v.1.15,2013-06-30 13:42:00,
2013-06-30 09:47:00,69.3,63.6,29.80,ESE,110,1.0,2.0,82,0.00,,,0.00,Wunderground v.1.15,2013-06-30 13:47:00,
2013-06-30 09:53:00,70.1,65.0,29.80,ESE,109,1.0,3.0,84,0.00,,,0.00,Wunderground v.1.15,2013-06-30 13:53:00,
2013-06-30 09:58:00,70.6,66.9,29.80,ESE,119,2.0,3.0,88,0.00,,,0.00,Wunderground v.1.15,2013-06-30 13:58:00,
2013-06-30 10:04:00,70.8,67.4,29.80,ESE,119,1.0,2.0,89,0.00,,,0.00,Wunderground v.1.15,2013-06-30 14:04:00,
2013-06-30 10:10:00,71.6,68.2,29.80,ESE,119,0.0,0.0,89,0.00,,,0.00,Wunderground v.1.15,2013-06-30 14:10:00,
2013-06-30 10:15:00,72.5,69.1,29.80,ESE,121,1.0,3.0,89,0.00,,,0.00,Wunderground v.1.15,2013-06-30 14:15:00,
2013-06-30 10:21:00,72.9,68.5,29.80,SE,140,2.0,2.0,86,0.00,,,0.00,Wunderground v.1.15,2013-06-30 14:21:00,
2013-06-30 10:26:00,73.5,69.1,29.80,SSE,150,1.0,3.0,86,0.00,,,0.00,Wunderground v.1.15,2013-06-30 14:26:00,
2013-06-30 10:31:00,72.6,68.2,29.80,SSE,161,1.0,3.0,86,0.00,,,0.00,Wunderground v.1.15,2013-06-30 14:31:00,
2013-06-30 10:37:00,72.9,68.5,29.80,SSE,163,2.0,3.0,86,0.00,,,0.00,Wunderground v.1.15,2013-06-30 14:37:00,
2013-06-30 10:42:00,73.5,68.4,29.80,SSE,163,1.0,6.0,84,0.00,,,0.00,Wunderground v.1.15,2013-06-30 14:42:00,
2013-06-30 10:48:00,73.4,68.3,29.80,SSE,164,2.0,6.0,84,0.00,,,0.00,Wunderground v.1.15,2013-06-30 14:48:00,
2013-06-30 10:54:00,74.4,68.9,29.80,SE,136,1.0,2.0,83,0.00,,,0.00,Wunderground v.1.15,2013-06-30 14:54:00,
2013-06-30 10:59:00,74.4,68.5,29.80,SE,140,1.0,1.0,82,0.00,,,0.00,Wunderground v.1.15,2013-06-30 14:59:00,
2013-06-30 11:05:00,74.4,68.2,29.80,SE,140,1.0,2.0,81,0.00,,,0.00,Wunderground v.1.15,2013-06-30 15:05:00,
2013-06-30 11:10:00,74.6,68.4,29.80,SSW,212,1.0,1.0,81,0.00,,,0.00,Wunderground v.1.15,2013-06-30 15:10:00,
2013-06-30 11:15:00,75.6,69.4,29.79,SW,215,1.0,3.0,81,0.00,,,0.00,Wunderground v.1.15,2013-06-30 15:15:00,
2013-06-30 11:21:00,75.6,69.4,29.79,SSW,208,1.0,1.0,81,0.00,,,0.00,Wunderground v.1.15,2013-06-30 15:21:00,
2013-06-30 11:26:00,75.2,68.6,29.80,SSE,164,2.0,5.0,80,0.00,,,0.00,Wunderground v.1.15,2013-06-30 15:26:00,
2013-06-30 11:32:00,75.1,67.8,29.80,SE,144,2.0,2.0,78,0.00,,,0.00,Wunderground v.1.15,2013-06-30 15:32:00,
2013-06-30 11:37:00,75.3,69.1,29.80,West,266,1.0,3.0,81,0.00,,,0.00,Wunderground v.1.15,2013-06-30 15:37:00,
2013-06-30 11:43:00,75.6,68.3,29.80,SSE,167,2.0,3.0,78,0.00,,,0.00,Wunderground v.1.15,2013-06-30 15:43:00,
2013-06-30 11:48:00,76.1,69.1,29.80,South,181,2.0,3.0,79,0.00,,,0.00,Wunderground v.1.15,2013-06-30 15:48:00,
2013-06-30 11:54:00,76.6,70.0,29.80,WNW,298,1.0,3.0,80,0.00,,,0.00,Wunderground v.1.15,2013-06-30 15:54:00,
2013-06-30 11:59:00,76.5,69.1,29.80,NW,315,1.0,1.0,78,0.00,,,0.00,Wunderground v.1.15,2013-06-30 15:59:00,
2013-06-30 12:05:00,76.6,68.1,29.80,NW,315,1.0,1.0,75,0.00,,,0.00,Wunderground v.1.15,2013-06-30 16:05:00,
2013-06-30 12:11:00,76.3,68.9,29.80,NW,318,1.0,3.0,78,0.00,,,0.00,Wunderground v.1.15,2013-06-30 16:11:00,
2013-06-30 12:16:00,75.8,68.8,29.81,NW,318,1.0,3.0,79,0.00,,,0.00,Wunderground v.1.15,2013-06-30 16:16:00,
2013-06-30 12:22:00,75.5,68.5,29.80,NNW,327,1.0,2.0,79,0.00,,,0.00,Wunderground v.1.15,2013-06-30 16:22:00,
2013-06-30 12:27:00,75.9,68.9,29.81,NNW,340,1.0,2.0,79,0.00,,,0.00,Wunderground v.1.15,2013-06-30 16:27:00,
2013-06-30 12:32:00,76.5,70.2,29.80,NNW,342,1.0,2.0,81,0.00,,,0.00,Wunderground v.1.15,2013-06-30 16:32:00,
2013-06-30 12:38:00,76.5,68.7,29.80,North,349,1.0,3.0,77,0.00,,,0.00,Wunderground v.1.15,2013-06-30 16:38:00,
2013-06-30 12:43:00,76.5,69.9,29.81,North,355,1.0,3.0,80,0.00,,,0.00,Wunderground v.1.15,2013-06-30 16:43:00,
2013-06-30 12:49:00,76.7,69.3,29.80,North,355,0.0,3.0,78,0.00,,,0.00,Wunderground v.1.15,2013-06-30 16:49:00,
2013-06-30 12:54:00,77.7,69.9,29.80,NNE,19,0.0,1.0,77,0.00,,,0.00,Wunderground v.1.15,2013-06-30 16:54:00,
2013-06-30 12:59:00,78.3,70.1,29.80,NNE,24,1.0,1.0,76,0.00,,,0.00,Wunderground v.1.15,2013-06-30 16:59:00,
2013-06-30 13:05:00,78.8,69.8,29.80,NNW,332,1.0,4.0,74,0.00,,,0.00,Wunderground v.1.15,2013-06-30 17:05:00,
2013-06-30 13:10:00,79.0,69.6,29.79,NNW,329,1.0,3.0,73,0.00,,,0.00,Wunderground v.1.15,2013-06-30 17:10:00,
2013-06-30 13:16:00,78.7,70.1,29.79,NNE,21,2.0,3.0,75,0.00,,,0.00,Wunderground v.1.15,2013-06-30 17:16:00,
2013-06-30 13:21:00,78.8,69.8,29.79,NNW,330,1.0,5.0,74,0.00,,,0.00,Wunderground v.1.15,2013-06-30 17:21:00,
2013-06-30 13:27:00,78.7,69.7,29.79,NNW,343,2.0,5.0,74,0.00,,,0.00,Wunderground v.1.15,2013-06-30 17:27:00,
2013-06-30 13:32:00,79.1,69.3,29.80,NNW,342,1.0,2.0,72,0.00,,,0.00,Wunderground v.1.15,2013-06-30 17:32:00,
2013-06-30 13:37:00,78.8,70.6,29.79,NNW,338,1.0,3.0,76,0.00,,,0.00,Wunderground v.1.15,2013-06-30 17:37:00,
2013-06-30 13:42:00,79.4,70.8,29.79,NW,326,1.0,3.0,75,0.00,,,0.00,Wunderground v.1.15,2013-06-30 17:42:00,
2013-06-30 13:48:00,79.5,69.3,29.79,NW,319,1.0,3.0,71,0.00,,,0.00,Wunderground v.1.15,2013-06-30 17:48:00,
2013-06-30 13:53:00,79.8,71.2,29.79,WNW,291,1.0,2.0,75,0.00,,,0.00,Wunderground v.1.15,2013-06-30 17:53:00,
2013-06-30 13:59:00,79.7,69.9,29.79,NE,39,1.0,3.0,72,0.00,,,0.00,Wunderground v.1.15,2013-06-30 17:59:00,
2013-06-30 14:05:00,80.1,71.1,29.79,NNW,329,1.0,3.0,74,0.00,,,0.00,Wunderground v.1.15,2013-06-30 18:05:00,
2013-06-30 14:11:00,80.5,70.6,29.79,NNW,347,1.0,1.0,72,0.00,,,0.00,Wunderground v.1.15,2013-06-30 18:11:00,
2013-06-30 14:16:00,79.9,68.8,29.79,North,5,1.0,4.0,69,0.00,,,0.00,Wunderground v.1.15,2013-06-30 18:16:00,
2013-06-30 14:22:00,79.7,69.0,29.79,NNE,27,2.0,3.0,70,0.00,,,0.00,Wunderground v.1.15,2013-06-30 18:22:00,
2013-06-30 14:27:00,79.1,68.9,29.80,NNW,332,2.0,3.0,71,0.00,,,0.00,Wunderground v.1.15,2013-06-30 18:27:00,
2013-06-30 14:33:00,78.8,69.4,29.80,NNW,330,1.0,2.0,73,0.00,,,0.00,Wunderground v.1.15,2013-06-30 18:33:00,
2013-06-30 14:38:00,79.1,68.5,29.80,NNW,330,0.0,3.0,70,0.00,,,0.00,Wunderground v.1.15,2013-06-30 18:38:00,
2013-06-30 14:44:00,79.5,68.9,29.80,NNW,329,1.0,2.0,70,0.00,,,0.00,Wunderground v.1.15,2013-06-30 18:44:00,
2013-06-30 14:49:00,80.0,69.7,29.79,NNW,329,1.0,1.0,71,0.00,,,0.00,Wunderground v.1.15,2013-06-30 18:49:00,
2013-06-30 14:55:00,81.2,70.9,29.79,NNW,331,1.0,3.0,71,0.00,,,0.00,Wunderground v.1.15,2013-06-30 18:55:00,
2013-06-30 15:00:00,81.3,69.3,29.79,NNW,340,1.0,2.0,67,0.00,,,0.00,Wunderground v.1.15,2013-06-30 19:00:00,
2013-06-30 15:06:00,81.0,69.0,29.79,NW,326,1.0,6.0,67,0.00,,,0.00,Wunderground v.1.15,2013-06-30 19:06:00,
2013-06-30 15:11:00,81.5,69.9,29.79,WNW,284,1.0,4.0,68,0.00,,,0.00,Wunderground v.1.15,2013-06-30 19:11:00,
2013-06-30 15:17:00,81.6,69.1,29.79,NW,305,2.0,6.0,66,0.00,,,0.00,Wunderground v.1.15,2013-06-30 19:17:00,
2013-06-30 15:22:00,81.4,70.2,29.79,NNW,334,2.0,2.0,69,0.00,,,0.00,Wunderground v.1.15,2013-06-30 19:22:00,
2013-06-30 15:27:00,81.6,69.6,29.78,NW,323,1.0,4.0,67,0.00,,,0.00,Wunderground v.1.15,2013-06-30 19:27:00,
2013-06-30 15:33:00,81.6,68.7,29.79,NW,325,2.0,3.0,65,0.00,,,0.00,Wunderground v.1.15,2013-06-30 19:33:00,
2013-06-30 15:38:00,81.7,69.2,29.79,West,275,2.0,4.0,66,0.00,,,0.00,Wunderground v.1.15,2013-06-30 19:38:00,
2013-06-30 15:44:00,81.7,67.9,29.79,WNW,292,3.0,5.0,63,0.00,,,0.00,Wunderground v.1.15,2013-06-30 19:44:00,
2013-06-30 15:49:00,81.5,68.6,29.79,West,275,2.0,5.0,65,0.00,,,0.00,Wunderground v.1.15,2013-06-30 19:49:00,
2013-06-30 15:54:00,81.6,68.2,29.78,NNW,327,1.0,3.0,64,0.00,,,0.00,Wunderground v.1.15,2013-06-30 19:54:00,
2013-06-30 16:00:00,81.5,69.0,29.79,NNW,335,2.0,2.0,66,0.00,,,0.00,Wunderground v.1.15,2013-06-30 20:00:00,
2013-06-30 16:05:00,81.4,68.5,29.79,NNW,334,2.0,5.0,65,0.00,,,0.00,Wunderground v.1.15,2013-06-30 20:05:00,
2013-06-30 16:11:00,82.0,69.5,29.79,WNW,302,1.0,6.0,66,0.00,,,0.00,Wunderground v.1.15,2013-06-30 20:11:00,
2013-06-30 16:16:00,82.1,68.3,29.79,WNW,292,2.0,6.0,63,0.00,,,0.00,Wunderground v.1.15,2013-06-30 20:16:00,
2013-06-30 16:21:00,81.9,68.1,29.80,NW,320,2.0,3.0,63,0.00,,,0.00,Wunderground v.1.15,2013-06-30 20:21:00,
2013-06-30 16:27:00,82.2,68.3,29.79,West,274,2.0,4.0,63,0.00,,,0.00,Wunderground v.1.15,2013-06-30 20:27:00,
2013-06-30 16:32:00,81.8,68.0,29.79,NW,317,3.0,3.0,63,0.00,,,0.00,Wunderground v.1.15,2013-06-30 20:32:00,
2013-06-30 16:37:00,81.8,67.0,29.78,West,269,3.0,4.0,61,0.00,,,0.00,Wunderground v.1.15,2013-06-30 20:37:00,
2013-06-30 16:43:00,81.9,67.6,29.78,NNW,327,2.0,4.0,62,0.00,,,0.00,Wunderground v.1.15,2013-06-30 20:43:00,
2013-06-30 16:48:00,82.3,68.0,29.79,West,269,2.0,4.0,62,0.00,,,0.00,Wunderground v.1.15,2013-06-30 20:48:00,
2013-06-30 16:54:00,82.8,68.0,29.78,WNW,298,2.0,3.0,61,0.00,,,0.00,Wunderground v.1.15,2013-06-30 20:54:00,
2013-06-30 16:59:00,82.3,67.0,29.79,WNW,283,2.0,6.0,60,0.00,,,0.00,Wunderground v.1.15,2013-06-30 20:59:00,
2013-06-30 17:05:00,82.5,67.2,29.79,West,275,1.0,2.0,60,0.00,,,0.00,Wunderground v.1.15,2013-06-30 21:05:00,
2013-06-30 17:11:00,82.1,66.8,29.78,West,274,1.0,2.0,60,0.00,,,0.00,Wunderground v.1.15,2013-06-30 21:11:00,
2013-06-30 17:16:00,81.8,66.1,29.78,West,272,2.0,5.0,59,0.00,,,0.00,Wunderground v.1.15,2013-06-30 21:16:00,
2013-06-30 17:22:00,82.3,68.4,29.79,West,273,1.0,3.0,63,0.00,,,0.00,Wunderground v.1.15,2013-06-30 21:22:00,
2013-06-30 17:27:00,82.7,68.8,29.79,WNW,302,1.0,3.0,63,0.00,,,0.00,Wunderground v.1.15,2013-06-30 21:27:00,
2013-06-30 17:32:00,82.6,68.7,29.78,West,274,1.0,4.0,63,0.00,,,0.00,Wunderground v.1.15,2013-06-30 21:32:00,
2013-06-30 17:38:00,82.4,69.4,29.78,NW,325,2.0,4.0,65,0.00,,,0.00,Wunderground v.1.15,2013-06-30 21:38:00,
2013-06-30 17:43:00,82.1,70.1,29.79,WNW,294,2.0,4.0,67,0.00,,,0.00,Wunderground v.1.15,2013-06-30 21:43:00,
2013-06-30 17:45:00,82.1,68.7,29.79,NW,305,2.0,4.0,64,0.00,,,0.00,Wunderground v.1.15,2013-06-30 21:45:00,
2013-06-30 17:51:00,82.3,68.9,29.79,NW,306,1.0,1.0,64,0.00,,,0.00,Wunderground v.1.15,2013-06-30 21:51:00,
2013-06-30 17:56:00,82.0,70.4,29.79,NW,312,1.0,4.0,68,0.00,,,0.00,Wunderground v.1.15,2013-06-30 21:56:00,
2013-06-30 18:02:00,81.8,68.4,29.80,West,267,1.0,3.0,64,0.00,,,0.00,Wunderground v.1.15,2013-06-30 22:02:00,
2013-06-30 18:07:00,81.8,69.8,29.81,West,268,1.0,3.0,67,0.00,,,0.00,Wunderground v.1.15,2013-06-30 22:07:00,
2013-06-30 18:13:00,81.7,69.7,29.80,West,273,1.0,2.0,67,0.00,,,0.00,Wunderground v.1.15,2013-06-30 22:13:00,
2013-06-30 18:18:00,81.3,69.3,29.81,West,270,1.0,5.0,67,0.00,,,0.00,Wunderground v.1.15,2013-06-30 22:18:00,
2013-06-30 18:23:00,80.9,69.8,29.81,WNW,282,2.0,4.0,69,0.00,,,0.00,Wunderground v.1.15,2013-06-30 22:23:00,
2013-06-30 18:29:00,80.4,69.3,29.81,West,279,2.0,4.0,69,0.00,,,0.00,Wunderground v.1.15,2013-06-30 22:29:00,
2013-06-30 18:34:00,79.9,69.2,29.81,West,279,1.0,2.0,70,0.00,,,0.00,Wunderground v.1.15,2013-06-30 22:34:00,
2013-06-30 18:40:00,79.4,69.2,29.81,West,279,0.0,0.0,71,0.00,,,0.00,Wunderground v.1.15,2013-06-30 22:40:00,
2013-06-30 18:45:00,79.1,69.3,29.81,West,279,0.0,0.0,72,0.00,,,0.00,Wunderground v.1.15,2013-06-30 22:45:00,
2013-06-30 18:51:00,78.9,69.9,29.81,West,278,0.0,3.0,74,0.00,,,0.00,Wunderground v.1.15,2013-06-30 22:51:00,
2013-06-30 18:56:00,78.8,70.2,29.81,West,279,1.0,3.0,75,0.00,,,0.00,Wunderground v.1.15,2013-06-30 22:56:00,
2013-06-30 19:02:00,78.8,70.2,29.81,West,274,1.0,3.0,75,0.00,,,0.00,Wunderground v.1.15,2013-06-30 23:02:00,
2013-06-30 19:07:00,78.7,70.1,29.81,West,273,1.0,3.0,75,0.00,,,0.00,Wunderground v.1.15,2013-06-30 23:07:00,
2013-06-30 19:12:00,78.6,70.0,29.81,West,269,1.0,1.0,75,0.00,,,0.00,Wunderground v.1.15,2013-06-30 23:12:00,
2013-06-30 19:18:00,78.6,70.0,29.82,West,274,1.0,3.0,75,0.00,,,0.00,Wunderground v.1.15,2013-06-30 23:18:00,
2013-06-30 19:23:00,78.6,70.4,29.82,West,275,2.0,3.0,76,0.00,,,0.00,Wunderground v.1.15,2013-06-30 23:23:00,
2013-06-30 19:28:00,78.5,70.3,29.82,West,275,1.0,3.0,76,0.00,,,0.00,Wunderground v.1.15,2013-06-30 23:28:00,
2013-06-30 19:34:00,78.3,70.1,29.82,West,275,0.0,1.0,76,0.00,,,0.00,Wunderground v.1.15,2013-06-30 23:34:00,
2013-06-30 19:39:00,78.1,70.3,29.82,West,275,0.0,1.0,77,0.00,,,0.00,Wunderground v.1.15,2013-06-30 23:39:00,
2013-06-30 19:45:00,77.8,70.0,29.83,West,275,0.0,0.0,77,0.00,,,0.00,Wunderground v.1.15,2013-06-30 23:45:00,
2013-06-30 19:50:00,77.6,70.6,29.83,West,275,0.0,0.0,79,0.00,,,0.00,Wunderground v.1.15,2013-06-30 23:50:00,
2013-06-30 19:55:00,77.4,70.0,29.83,West,275,0.0,1.0,78,0.00,,,0.00,Wunderground v.1.15,2013-06-30 23:55:00,
2013-06-30 20:00:00,77.1,69.7,29.83,West,275,0.0,0.0,78,0.00,,,0.00,Wunderground v.1.15,2013-07-01 00:00:00,
2013-06-30 20:06:00,76.8,69.4,29.83,West,275,0.0,0.0,78,0.00,,,0.00,Wunderground v.1.15,2013-07-01 00:06:00,
2013-06-30 20:12:00,76.5,69.5,29.83,West,275,0.0,0.0,79,0.00,,,0.00,Wunderground v.1.15,2013-07-01 00:12:00,
2013-06-30 20:17:00,76.3,69.3,29.83,West,275,0.0,0.0,79,0.00,,,0.00,Wunderground v.1.15,2013-07-01 00:17:00,
2013-06-30 20:22:00,75.9,68.9,29.84,West,279,0.0,0.0,79,0.00,,,0.00,Wunderground v.1.15,2013-07-01 00:22:00,
2013-06-30 20:28:00,75.5,68.9,29.84,West,279,0.0,2.0,80,0.00,,,0.00,Wunderground v.1.15,2013-07-01 00:28:00,
2013-06-30 20:33:00,75.1,68.9,29.84,West,279,0.0,0.0,81,0.00,,,0.00,Wunderground v.1.15,2013-07-01 00:33:00,
2013-06-30 20:38:00,74.7,68.5,29.84,West,279,0.0,0.0,81,0.00,,,0.00,Wunderground v.1.15,2013-07-01 00:38:00,
2013-06-30 20:44:00,74.4,68.2,29.84,West,279,0.0,0.0,81,0.00,,,0.00,Wunderground v.1.15,2013-07-01 00:44:00,
2013-06-30 20:49:00,74.0,68.2,29.84,West,279,0.0,0.0,82,0.00,,,0.00,Wunderground v.1.15,2013-07-01 00:49:00,
2013-06-30 20:55:00,73.8,68.7,29.85,West,279,0.0,1.0,84,0.00,,,0.00,Wunderground v.1.15,2013-07-01 00:55:00,
2013-06-30 21:00:00,73.5,68.0,29.85,West,279,0.0,0.0,83,0.00,,,0.00,Wunderground v.1.15,2013-07-01 01:00:00,
2013-06-30 21:05:00,73.3,68.2,29.86,West,279,0.0,0.0,84,0.00,,,0.00,Wunderground v.1.15,2013-07-01 01:05:00,
2013-06-30 21:10:00,73.1,68.3,29.86,West,279,0.0,0.0,85,0.00,,,0.00,Wunderground v.1.15,2013-07-01 01:10:00,
2013-06-30 21:15:00,73.0,68.2,29.87,West,279,0.0,0.0,85,0.00,,,0.00,Wunderground v.1.15,2013-07-01 01:15:00,
2013-06-30 21:21:00,72.8,68.0,29.86,West,279,0.0,0.0,85,0.00,,,0.00,Wunderground v.1.15,2013-07-01 01:21:00,
2013-06-30 21:25:00,72.7,67.9,29.86,West,279,0.0,0.0,85,0.00,,,0.00,Wunderground v.1.15,2013-07-01 01:25:00,
2013-06-30 21:30:00,72.6,67.8,29.86,West,279,0.0,0.0,85,0.00,,,0.00,Wunderground v.1.15,2013-07-01 01:30:00,
2013-06-30 21:36:00,72.5,68.1,29.86,West,279,0.0,3.0,86,0.00,,,0.00,Wunderground v.1.15,2013-07-01 01:36:00,
2013-06-30 21:41:00,72.2,67.8,29.87,South,190,2.0,5.0,86,0.00,,,0.00,Wunderground v.1.15,2013-07-01 01:41:00,
2013-06-30 21:46:00,72.1,67.7,29.87,South,184,3.0,5.0,86,0.00,,,0.00,Wunderground v.1.15,2013-07-01 01:46:00,
2013-06-30 21:52:00,72.2,67.8,29.87,South,186,1.0,1.0,86,0.00,,,0.00,Wunderground v.1.15,2013-07-01 01:52:00,
2013-06-30 21:57:00,72.2,67.8,29.87,South,186,0.0,1.0,86,0.00,,,0.00,Wunderground v.1.15,2013-07-01 01:57:00,
2013-06-30 22:03:00,72.2,67.8,29.88,SSW,205,1.0,1.0,86,0.00,,,0.00,Wunderground v.1.15,2013-07-01 02:03:00,
2013-06-30 22:08:00,72.1,67.7,29.88,SSW,205,0.0,1.0,86,0.00,,,0.00,Wunderground v.1.15,2013-07-01 02:08:00,
2013-06-30 22:14:00,71.9,67.8,29.88,SSW,205,0.0,0.0,87,0.00,,,0.01,Wunderground v.1.15,2013-07-01 02:14:00,
2013-06-30 22:19:00,71.6,67.9,29.88,SSW,200,0.0,1.0,88,0.00,,,0.01,Wunderground v.1.15,2013-07-01 02:19:00,
2013-06-30 22:24:00,71.2,67.5,29.88,SSW,200,0.0,0.0,88,0.00,,,0.01,Wunderground v.1.15,2013-07-01 02:24:00,
2013-06-30 22:29:00,70.8,67.1,29.88,SSW,200,0.0,0.0,88,0.00,,,0.01,Wunderground v.1.15,2013-07-01 02:29:00,
2013-06-30 22:35:00,70.5,67.1,29.88,SSW,200,0.0,0.0,89,0.00,,,0.01,Wunderground v.1.15,2013-07-01 02:35:00,
2013-06-30 22:40:00,70.3,66.6,29.89,SSW,200,0.0,0.0,88,0.00,,,0.01,Wunderground v.1.15,2013-07-01 02:40:00,
2013-06-30 22:46:00,70.1,66.4,29.88,SSW,200,0.0,0.0,88,0.00,,,0.01,Wunderground v.1.15,2013-07-01 02:46:00,
2013-06-30 22:51:00,70.0,66.3,29.88,SSW,200,0.0,0.0,88,0.00,,,0.01,Wunderground v.1.15,2013-07-01 02:51:00,
2013-06-30 22:56:00,69.9,66.2,29.88,SSW,200,0.0,2.0,88,0.00,,,0.01,Wunderground v.1.15,2013-07-01 02:56:00,
2013-06-30 23:02:00,69.8,66.1,29.89,SSW,200,0.0,0.0,88,0.00,,,0.01,Wunderground v.1.15,2013-07-01 03:02:00,
2013-06-30 23:07:00,69.7,66.0,29.89,SSW,200,0.0,0.0,88,0.00,,,0.01,Wunderground v.1.15,2013-07-01 03:07:00,
2013-06-30 23:12:00,69.7,66.0,29.89,SSW,200,0.0,0.0,88,0.00,,,0.01,Wunderground v.1.15,2013-07-01 03:12:00,
2013-06-30 23:18:00,69.5,65.8,29.89,SSW,200,0.0,0.0,88,0.00,,,0.01,Wunderground v.1.15,2013-07-01 03:18:00,
2013-06-30 23:23:00,69.5,65.8,29.89,SSW,200,0.0,2.0,88,0.00,,,0.01,Wunderground v.1.15,2013-07-01 03:23:00,
2013-06-30 23:29:00,69.3,65.6,29.89,SSW,200,0.0,2.0,88,0.00,,,0.01,Wunderground v.1.15,2013-07-01 03:29:00,
2013-06-30 23:35:00,69.3,65.6,29.89,SSW,200,0.0,0.0,88,0.00,,,0.01,Wunderground v.1.15,2013-07-01 03:35:00,
2013-06-30 23:40:00,69.2,65.5,29.89,SSW,200,0.0,0.0,88,0.00,,,0.01,Wunderground v.1.15,2013-07-01 03:40:00,
2013-06-30 23:46:00,69.1,65.4,29.89,SSW,200,0.0,0.0,88,0.00,,,0.01,Wunderground v.1.15,2013-07-01 03:46:00,
2013-06-30 23:51:00,68.9,65.2,29.89,SSW,200,0.0,0.0,88,0.00,,,0.01,Wunderground v.1.15,2013-07-01 03:51:00,
2013-06-30 23:56:00,68.8,65.1,29.89,SSW,200,0.0,0.0,88,0.00,,,0.01,Wunderground v.1.15,2013-07-01 03:56:00,